Terminal Aerodrome Forecast
Issued by NWS

Home | Current Version | Previous Version | Text Only | Print | Product List | Glossary On
Versions: 1 2 3 4 5 6 7 8 9 10 11 12 13 14 15 16 17 18 19 20
732
FTUS43 KSGF 162320
TAFJLN
TAF
KJLN 162320Z 1700/1724 21011KT P6SM FEW250
     FM170600 20010G17KT P6SM SKC WS016/24040KT
     FM171500 21014G20KT P6SM SKC=

USA.gov is the U.S. government's official web portal to all federal, state and local government web resources and services.